sensor_id;sensor_type;location;lat;lon;timestamp;temperature;humidity
20845;DHT22;10583;49.084;8.646;2023-04-28T00:00:35;10.90;99.90
20845;DHT22;10583;49.084;8.646;2023-04-28T00:03:02;10.90;99.90
20845;DHT22;10583;49.084;8.646;2023-04-28T00:05:28;10.90;99.90
20845;DHT22;10583;49.084;8.646;2023-04-28T00:07:55;10.90;99.90
20845;DHT22;10583;49.084;8.646;2023-04-28T00:10:23;10.90;99.90
20845;DHT22;10583;49.084;8.646;2023-04-28T00:12:50;10.90;99.90
20845;DHT22;10583;49.084;8.646;2023-04-28T00:15:17;10.90;99.90
20845;DHT22;10583;49.084;8.646;2023-04-28T00:17:43;10.90;99.90
20845;DHT22;10583;49.084;8.646;2023-04-28T00:20:11;11.00;99.90
20845;DHT22;10583;49.084;8.646;2023-04-28T00:22:37;11.00;99.90
20845;DHT22;10583;49.084;8.646;2023-04-28T00:25:05;11.00;99.90
20845;DHT22;10583;49.084;8.646;2023-04-28T00:27:33;11.00;99.90
20845;DHT22;10583;49.084;8.646;2023-04-28T00:30:00;11.00;99.90
20845;DHT22;10583;49.084;8.646;2023-04-28T00:32:27;11.00;99.90
20845;DHT22;10583;49.084;8.646;2023-04-28T00:34:55;11.00;99.90
20845;DHT22;10583;49.084;8.646;2023-04-28T00:37:22;11.00;99.90
20845;DHT22;10583;49.084;8.646;2023-04-28T00:39:53;10.90;99.90
20845;DHT22;10583;49.084;8.646;2023-04-28T00:42:20;11.00;99.90
20845;DHT22;10583;49.084;8.646;2023-04-28T00:44:48;10.90;99.90
20845;DHT22;10583;49.084;8.646;2023-04-28T00:47:16;10.90;99.90
20845;DHT22;10583;49.084;8.646;2023-04-28T00:49:44;10.90;99.90
20845;DHT22;10583;49.084;8.646;2023-04-28T00:52:12;10.90;99.90
20845;DHT22;10583;49.084;8.646;2023-04-28T00:54:38;11.00;99.90
20845;DHT22;10583;49.084;8.646;2023-04-28T00:57:06;11.00;99.90
20845;DHT22;10583;49.084;8.646;2023-04-28T00:59:33;11.00;99.90
20845;DHT22;10583;49.084;8.646;2023-04-28T01:02:01;10.90;99.90
20845;DHT22;10583;49.084;8.646;2023-04-28T01:04:29;10.90;99.90
20845;DHT22;10583;49.084;8.646;2023-04-28T01:06:57;10.90;99.90
20845;DHT22;10583;49.084;8.646;2023-04-28T01:09:26;10.90;99.90
20845;DHT22;10583;49.084;8.646;2023-04-28T01:11:52;10.90;99.90
20845;DHT22;10583;49.084;8.646;2023-04-28T01:14:19;10.80;99.90
20845;DHT22;10583;49.084;8.646;2023-04-28T01:16:46;10.80;99.90
20845;DHT22;10583;49.084;8.646;2023-04-28T01:19:18;10.80;99.90
20845;DHT22;10583;49.084;8.646;2023-04-28T01:21:46;10.70;99.90
20845;DHT22;10583;49.084;8.646;2023-04-28T01:24:14;10.70;99.90
20845;DHT22;10583;49.084;8.646;2023-04-28T01:26:40;10.70;99.90
20845;DHT22;10583;49.084;8.646;2023-04-28T01:29:07;10.60;99.90
20845;DHT22;10583;49.084;8.646;2023-04-28T01:31:34;10.50;99.90
20845;DHT22;10583;49.084;8.646;2023-04-28T01:34:00;10.50;99.90
20845;DHT22;10583;49.084;8.646;2023-04-28T01:36:27;10.50;99.90
20845;DHT22;10583;49.084;8.646;2023-04-28T01:38:54;10.50;99.90
20845;DHT22;10583;49.084;8.646;2023-04-28T01:41:22;10.60;99.90
20845;DHT22;10583;49.084;8.646;2023-04-28T01:43:49;10.60;99.90
20845;DHT22;10583;49.084;8.646;2023-04-28T01:46:16;10.60;99.90
20845;DHT22;10583;49.084;8.646;2023-04-28T01:48:43;10.60;99.90
20845;DHT22;10583;49.084;8.646;2023-04-28T01:51:10;10.60;99.90
20845;DHT22;10583;49.084;8.646;2023-04-28T01:53:36;10.60;99.90
20845;DHT22;10583;49.084;8.646;2023-04-28T01:56:03;10.60;99.90
20845;DHT22;10583;49.084;8.646;2023-04-28T01:58:31;10.50;99.90
20845;DHT22;10583;49.084;8.646;2023-04-28T02:00:58;10.60;99.90
20845;DHT22;10583;49.084;8.646;2023-04-28T02:03:25;10.60;99.90
20845;DHT22;10583;49.084;8.646;2023-04-28T02:05:52;10.60;99.90
20845;DHT22;10583;49.084;8.646;2023-04-28T02:08:19;10.60;99.90
20845;DHT22;10583;49.084;8.646;2023-04-28T02:10:46;10.70;99.90
20845;DHT22;10583;49.084;8.646;2023-04-28T02:13:12;10.60;99.90
20845;DHT22;10583;49.084;8.646;2023-04-28T02:15:41;10.70;99.90
20845;DHT22;10583;49.084;8.646;2023-04-28T02:18:07;10.70;99.90
20845;DHT22;10583;49.084;8.646;2023-04-28T02:20:34;10.70;99.90
20845;DHT22;10583;49.084;8.646;2023-04-28T02:23:01;10.70;99.90
20845;DHT22;10583;49.084;8.646;2023-04-28T02:25:28;10.70;99.90
20845;DHT22;10583;49.084;8.646;2023-04-28T02:27:54;10.60;99.90
20845;DHT22;10583;49.084;8.646;2023-04-28T02:30:21;10.60;99.90
20845;DHT22;10583;49.084;8.646;2023-04-28T02:32:49;10.50;99.90
20845;DHT22;10583;49.084;8.646;2023-04-28T02:35:16;10.60;99.90
20845;DHT22;10583;49.084;8.646;2023-04-28T02:37:43;10.70;99.90
20845;DHT22;10583;49.084;8.646;2023-04-28T02:40:11;10.80;99.90
20845;DHT22;10583;49.084;8.646;2023-04-28T02:42:38;10.80;99.90
20845;DHT22;10583;49.084;8.646;2023-04-28T02:45:05;10.80;99.90
20845;DHT22;10583;49.084;8.646;2023-04-28T02:47:32;10.80;99.90
20845;DHT22;10583;49.084;8.646;2023-04-28T02:50:00;10.80;99.90
20845;DHT22;10583;49.084;8.646;2023-04-28T02:52:27;10.70;99.90
20845;DHT22;10583;49.084;8.646;2023-04-28T02:54:53;10.70;99.90
20845;DHT22;10583;49.084;8.646;2023-04-28T02:57:22;10.60;99.90
20845;DHT22;10583;49.084;8.646;2023-04-28T02:59:49;10.60;99.90
20845;DHT22;10583;49.084;8.646;2023-04-28T03:02:15;10.60;99.90
20845;DHT22;10583;49.084;8.646;2023-04-28T03:04:42;10.50;99.90
20845;DHT22;10583;49.084;8.646;2023-04-28T03:07:10;10.60;99.90
20845;DHT22;10583;49.084;8.646;2023-04-28T03:09:37;10.60;99.90
20845;DHT22;10583;49.084;8.646;2023-04-28T03:12:03;10.60;99.90
20845;DHT22;10583;49.084;8.646;2023-04-28T03:14:30;10.60;99.90
20845;DHT22;10583;49.084;8.646;2023-04-28T03:16:57;10.60;99.90
20845;DHT22;10583;49.084;8.646;2023-04-28T03:19:23;10.60;99.90
20845;DHT22;10583;49.084;8.646;2023-04-28T03:21:51;10.70;99.90
20845;DHT22;10583;49.084;8.646;2023-04-28T03:24:19;10.70;99.90
20845;DHT22;10583;49.084;8.646;2023-04-28T03:26:45;10.70;99.90
20845;DHT22;10583;49.084;8.646;2023-04-28T03:29:12;10.80;99.90
20845;DHT22;10583;49.084;8.646;2023-04-28T03:31:38;10.80;99.90
20845;DHT22;10583;49.084;8.646;2023-04-28T03:34:06;10.70;99.90
20845;DHT22;10583;49.084;8.646;2023-04-28T03:36:32;10.70;99.90
20845;DHT22;10583;49.084;8.646;2023-04-28T03:38:59;10.80;99.90
20845;DHT22;10583;49.084;8.646;2023-04-28T03:41:27;10.80;99.90
20845;DHT22;10583;49.084;8.646;2023-04-28T03:43:54;10.90;99.90
20845;DHT22;10583;49.084;8.646;2023-04-28T03:46:21;10.80;99.90
20845;DHT22;10583;49.084;8.646;2023-04-28T03:48:48;10.80;99.90
20845;DHT22;10583;49.084;8.646;2023-04-28T03:51:15;10.90;99.90
20845;DHT22;10583;49.084;8.646;2023-04-28T03:53:41;10.90;99.90
20845;DHT22;10583;49.084;8.646;2023-04-28T03:56:08;10.90;99.90
20845;DHT22;10583;49.084;8.646;2023-04-28T03:58:36;10.90;99.90
20845;DHT22;10583;49.084;8.646;2023-04-28T04:01:03;10.90;99.90
20845;DHT22;10583;49.084;8.646;2023-04-28T04:03:30;10.90;99.90
20845;DHT22;10583;49.084;8.646;2023-04-28T04:05:57;10.90;99.90
20845;DHT22;10583;49.084;8.646;2023-04-28T04:08:26;11.00;99.90
20845;DHT22;10583;49.084;8.646;2023-04-28T04:10:52;11.00;99.90
20845;DHT22;10583;49.084;8.646;2023-04-28T04:13:20;11.00;99.90
20845;DHT22;10583;49.084;8.646;2023-04-28T04:15:48;11.00;99.90
20845;DHT22;10583;49.084;8.646;2023-04-28T04:18:17;11.00;99.90
20845;DHT22;10583;49.084;8.646;2023-04-28T04:20:44;11.00;99.90
20845;DHT22;10583;49.084;8.646;2023-04-28T04:23:10;11.10;99.90
20845;DHT22;10583;49.084;8.646;2023-04-28T04:25:37;11.10;99.90
20845;DHT22;10583;49.084;8.646;2023-04-28T04:28:04;11.10;99.90
20845;DHT22;10583;49.084;8.646;2023-04-28T04:30:31;11.10;99.90
20845;DHT22;10583;49.084;8.646;2023-04-28T04:32:59;11.10;99.90
20845;DHT22;10583;49.084;8.646;2023-04-28T04:35:26;11.10;99.90
20845;DHT22;10583;49.084;8.646;2023-04-28T04:37:52;11.10;99.90
20845;DHT22;10583;49.084;8.646;2023-04-28T04:40:19;11.10;99.90
20845;DHT22;10583;49.084;8.646;2023-04-28T04:42:46;11.00;99.90
20845;DHT22;10583;49.084;8.646;2023-04-28T04:45:13;11.00;99.90
20845;DHT22;10583;49.084;8.646;2023-04-28T04:47:40;11.00;99.90
20845;DHT22;10583;49.084;8.646;2023-04-28T04:50:10;11.00;99.90
20845;DHT22;10583;49.084;8.646;2023-04-28T04:52:37;11.00;99.90
20845;DHT22;10583;49.084;8.646;2023-04-28T04:55:04;11.00;99.90
20845;DHT22;10583;49.084;8.646;2023-04-28T04:57:31;11.10;99.90
20845;DHT22;10583;49.084;8.646;2023-04-28T04:59:58;11.10;99.90
20845;DHT22;10583;49.084;8.646;2023-04-28T05:02:25;11.10;99.90
20845;DHT22;10583;49.084;8.646;2023-04-28T05:04:53;11.20;99.90
20845;DHT22;10583;49.084;8.646;2023-04-28T05:07:21;11.20;99.90
20845;DHT22;10583;49.084;8.646;2023-04-28T05:09:48;11.20;99.90
20845;DHT22;10583;49.084;8.646;2023-04-28T05:12:15;11.20;99.90
20845;DHT22;10583;49.084;8.646;2023-04-28T05:14:41;11.20;99.90
20845;DHT22;10583;49.084;8.646;2023-04-28T05:17:08;11.30;99.90
20845;DHT22;10583;49.084;8.646;2023-04-28T05:19:35;11.30;99.90
20845;DHT22;10583;49.084;8.646;2023-04-28T05:22:01;11.30;99.90
20845;DHT22;10583;49.084;8.646;2023-04-28T05:24:29;11.30;99.90
20845;DHT22;10583;49.084;8.646;2023-04-28T05:26:57;11.30;99.90
20845;DHT22;10583;49.084;8.646;2023-04-28T05:29:24;11.40;99.90
20845;DHT22;10583;49.084;8.646;2023-04-28T05:31:51;11.40;99.90
20845;DHT22;10583;49.084;8.646;2023-04-28T05:34:17;11.30;99.90
20845;DHT22;10583;49.084;8.646;2023-04-28T05:36:44;11.30;99.90
20845;DHT22;10583;49.084;8.646;2023-04-28T05:39:11;11.40;99.90
20845;DHT22;10583;49.084;8.646;2023-04-28T05:41:39;11.40;99.90
20845;DHT22;10583;49.084;8.646;2023-04-28T05:44:06;11.40;99.90
20845;DHT22;10583;49.084;8.646;2023-04-28T05:46:33;11.30;99.90
20845;DHT22;10583;49.084;8.646;2023-04-28T05:49:00;11.40;99.90
20845;DHT22;10583;49.084;8.646;2023-04-28T05:51:27;11.40;99.90
20845;DHT22;10583;49.084;8.646;2023-04-28T05:53:54;11.30;99.90
20845;DHT22;10583;49.084;8.646;2023-04-28T05:56:21;11.30;99.90
20845;DHT22;10583;49.084;8.646;2023-04-28T05:58:49;11.30;99.90
20845;DHT22;10583;49.084;8.646;2023-04-28T06:01:16;11.30;99.90
20845;DHT22;10583;49.084;8.646;2023-04-28T06:03:42;11.30;99.90
20845;DHT22;10583;49.084;8.646;2023-04-28T06:06:10;11.30;99.90
20845;DHT22;10583;49.084;8.646;2023-04-28T06:08:37;11.40;99.90
20845;DHT22;10583;49.084;8.646;2023-04-28T06:11:03;11.40;99.90
20845;DHT22;10583;49.084;8.646;2023-04-28T06:13:30;11.40;99.90
20845;DHT22;10583;49.084;8.646;2023-04-28T06:15:58;11.50;99.90
20845;DHT22;10583;49.084;8.646;2023-04-28T06:18:25;11.50;99.90
20845;DHT22;10583;49.084;8.646;2023-04-28T06:20:52;11.60;99.90
20845;DHT22;10583;49.084;8.646;2023-04-28T06:23:18;11.60;99.90
20845;DHT22;10583;49.084;8.646;2023-04-28T06:25:45;11.70;99.90
20845;DHT22;10583;49.084;8.646;2023-04-28T06:28:12;11.70;99.90
20845;DHT22;10583;49.084;8.646;2023-04-28T06:30:39;11.70;99.90
20845;DHT22;10583;49.084;8.646;2023-04-28T06:33:07;11.70;99.90
20845;DHT22;10583;49.084;8.646;2023-04-28T06:35:34;11.70;99.90
20845;DHT22;10583;49.084;8.646;2023-04-28T06:38:03;11.80;99.90
20845;DHT22;10583;49.084;8.646;2023-04-28T06:40:30;11.80;99.90
20845;DHT22;10583;49.084;8.646;2023-04-28T06:42:57;11.80;99.90
20845;DHT22;10583;49.084;8.646;2023-04-28T06:45:23;11.90;99.90
20845;DHT22;10583;49.084;8.646;2023-04-28T06:47:50;11.90;99.90
20845;DHT22;10583;49.084;8.646;2023-04-28T06:50:21;11.90;99.90
20845;DHT22;10583;49.084;8.646;2023-04-28T06:52:48;12.00;99.90
20845;DHT22;10583;49.084;8.646;2023-04-28T06:55:15;12.00;99.90
20845;DHT22;10583;49.084;8.646;2023-04-28T06:57:43;11.90;99.90
20845;DHT22;10583;49.084;8.646;2023-04-28T07:00:10;11.90;99.90
20845;DHT22;10583;49.084;8.646;2023-04-28T07:02:37;12.00;99.90
20845;DHT22;10583;49.084;8.646;2023-04-28T07:05:04;12.00;99.90
20845;DHT22;10583;49.084;8.646;2023-04-28T07:07:32;12.00;99.90
20845;DHT22;10583;49.084;8.646;2023-04-28T07:09:59;12.00;99.90
20845;DHT22;10583;49.084;8.646;2023-04-28T07:12:26;12.00;99.90
20845;DHT22;10583;49.084;8.646;2023-04-28T07:14:53;11.90;99.90
20845;DHT22;10583;49.084;8.646;2023-04-28T07:17:20;11.90;99.90
20845;DHT22;10583;49.084;8.646;2023-04-28T07:19:47;11.90;99.90
20845;DHT22;10583;49.084;8.646;2023-04-28T07:22:15;11.90;99.90
20845;DHT22;10583;49.084;8.646;2023-04-28T07:24:43;11.80;99.90
20845;DHT22;10583;49.084;8.646;2023-04-28T07:27:10;11.70;99.90
20845;DHT22;10583;49.084;8.646;2023-04-28T07:29:53;11.70;99.90
20845;DHT22;10583;49.084;8.646;2023-04-28T07:32:20;11.60;99.90
20845;DHT22;10583;49.084;8.646;2023-04-28T07:34:48;11.50;99.90
20845;DHT22;10583;49.084;8.646;2023-04-28T07:37:15;11.50;99.90
20845;DHT22;10583;49.084;8.646;2023-04-28T07:39:43;11.50;99.90
20845;DHT22;10583;49.084;8.646;2023-04-28T07:42:10;11.40;99.90
20845;DHT22;10583;49.084;8.646;2023-04-28T07:44:37;11.50;99.90
20845;DHT22;10583;49.084;8.646;2023-04-28T07:47:03;11.40;99.90
20845;DHT22;10583;49.084;8.646;2023-04-28T07:49:30;11.40;99.90
20845;DHT22;10583;49.084;8.646;2023-04-28T07:51:57;11.40;99.90
20845;DHT22;10583;49.084;8.646;2023-04-28T07:54:24;11.50;99.90
20845;DHT22;10583;49.084;8.646;2023-04-28T07:56:52;11.40;99.90
20845;DHT22;10583;49.084;8.646;2023-04-28T07:59:19;11.50;99.90
20845;DHT22;10583;49.084;8.646;2023-04-28T08:01:45;11.50;99.90
20845;DHT22;10583;49.084;8.646;2023-04-28T08:04:12;11.60;99.90
20845;DHT22;10583;49.084;8.646;2023-04-28T08:06:39;11.60;99.90
20845;DHT22;10583;49.084;8.646;2023-04-28T08:09:06;11.60;99.90
20845;DHT22;10583;49.084;8.646;2023-04-28T08:11:33;11.60;99.90
20845;DHT22;10583;49.084;8.646;2023-04-28T08:14:01;11.60;99.90
20845;DHT22;10583;49.084;8.646;2023-04-28T08:16:29;11.60;99.90
20845;DHT22;10583;49.084;8.646;2023-04-28T08:18:56;11.60;99.90
20845;DHT22;10583;49.084;8.646;2023-04-28T08:21:22;11.70;99.90
20845;DHT22;10583;49.084;8.646;2023-04-28T08:23:49;11.70;99.90
20845;DHT22;10583;49.084;8.646;2023-04-28T08:26:16;11.70;99.90
20845;DHT22;10583;49.084;8.646;2023-04-28T08:28:42;11.70;99.90
20845;DHT22;10583;49.084;8.646;2023-04-28T08:31:11;11.70;99.90
20845;DHT22;10583;49.084;8.646;2023-04-28T08:33:37;11.60;99.90
20845;DHT22;10583;49.084;8.646;2023-04-28T08:36:04;11.60;99.90
20845;DHT22;10583;49.084;8.646;2023-04-28T08:38:31;11.60;99.90
20845;DHT22;10583;49.084;8.646;2023-04-28T08:40:58;11.80;99.90
20845;DHT22;10583;49.084;8.646;2023-04-28T08:43:25;11.80;99.90
20845;DHT22;10583;49.084;8.646;2023-04-28T08:45:53;12.00;99.90
20845;DHT22;10583;49.084;8.646;2023-04-28T08:48:21;12.10;99.90
20845;DHT22;10583;49.084;8.646;2023-04-28T08:50:49;12.20;99.90
20845;DHT22;10583;49.084;8.646;2023-04-28T08:53:22;12.40;99.90
20845;DHT22;10583;49.084;8.646;2023-04-28T08:55:51;12.50;99.90
20845;DHT22;10583;49.084;8.646;2023-04-28T08:58:20;12.60;99.90
20845;DHT22;10583;49.084;8.646;2023-04-28T09:00:47;12.60;99.90
20845;DHT22;10583;49.084;8.646;2023-04-28T09:03:14;12.50;99.90
20845;DHT22;10583;49.084;8.646;2023-04-28T09:05:42;12.60;99.90
20845;DHT22;10583;49.084;8.646;2023-04-28T09:08:09;12.60;99.90
20845;DHT22;10583;49.084;8.646;2023-04-28T09:10:37;12.60;99.90
20845;DHT22;10583;49.084;8.646;2023-04-28T09:13:04;12.70;99.90
20845;DHT22;10583;49.084;8.646;2023-04-28T09:15:32;12.80;99.90
20845;DHT22;10583;49.084;8.646;2023-04-28T09:18:00;12.80;99.90
20845;DHT22;10583;49.084;8.646;2023-04-28T09:20:28;13.00;99.90
20845;DHT22;10583;49.084;8.646;2023-04-28T09:23:12;13.10;99.90
20845;DHT22;10583;49.084;8.646;2023-04-28T09:25:39;13.20;99.90
20845;DHT22;10583;49.084;8.646;2023-04-28T09:28:19;13.30;99.90
20845;DHT22;10583;49.084;8.646;2023-04-28T09:30:46;13.50;99.90
20845;DHT22;10583;49.084;8.646;2023-04-28T09:33:13;13.70;99.90
20845;DHT22;10583;49.084;8.646;2023-04-28T09:35:40;13.80;99.90
20845;DHT22;10583;49.084;8.646;2023-04-28T09:38:09;13.90;99.90
20845;DHT22;10583;49.084;8.646;2023-04-28T09:40:48;14.10;99.90
20845;DHT22;10583;49.084;8.646;2023-04-28T09:43:26;14.30;99.90
20845;DHT22;10583;49.084;8.646;2023-04-28T09:45:54;14.50;99.90
20845;DHT22;10583;49.084;8.646;2023-04-28T09:48:29;14.80;99.90
20845;DHT22;10583;49.084;8.646;2023-04-28T09:50:56;15.10;99.90
20845;DHT22;10583;49.084;8.646;2023-04-28T09:53:25;15.20;99.90
20845;DHT22;10583;49.084;8.646;2023-04-28T09:55:53;15.20;99.90
20845;DHT22;10583;49.084;8.646;2023-04-28T09:58:20;15.20;99.90
20845;DHT22;10583;49.084;8.646;2023-04-28T10:00:51;15.20;99.90
20845;DHT22;10583;49.084;8.646;2023-04-28T10:03:20;15.20;99.90
20845;DHT22;10583;49.084;8.646;2023-04-28T10:05:47;15.20;99.90
20845;DHT22;10583;49.084;8.646;2023-04-28T10:08:15;15.40;99.90
20845;DHT22;10583;49.084;8.646;2023-04-28T10:10:46;15.50;99.90
20845;DHT22;10583;49.084;8.646;2023-04-28T10:13:14;15.70;99.90
20845;DHT22;10583;49.084;8.646;2023-04-28T10:15:42;15.70;99.90
20845;DHT22;10583;49.084;8.646;2023-04-28T10:18:10;15.80;99.90
20845;DHT22;10583;49.084;8.646;2023-04-28T10:20:37;16.00;99.90
20845;DHT22;10583;49.084;8.646;2023-04-28T10:23:21;16.10;99.90
20845;DHT22;10583;49.084;8.646;2023-04-28T10:25:55;16.20;99.90
20845;DHT22;10583;49.084;8.646;2023-04-28T10:28:24;16.40;99.90
20845;DHT22;10583;49.084;8.646;2023-04-28T10:31:08;16.50;99.90
20845;DHT22;10583;49.084;8.646;2023-04-28T10:33:36;16.50;99.90
20845;DHT22;10583;49.084;8.646;2023-04-28T10:36:03;16.50;99.90
20845;DHT22;10583;49.084;8.646;2023-04-28T10:38:30;16.40;99.90
20845;DHT22;10583;49.084;8.646;2023-04-28T10:40:58;16.30;99.90
20845;DHT22;10583;49.084;8.646;2023-04-28T10:43:35;16.10;99.90
20845;DHT22;10583;49.084;8.646;2023-04-28T10:46:08;16.00;99.90
20845;DHT22;10583;49.084;8.646;2023-04-28T10:49:05;15.80;99.90
20845;DHT22;10583;49.084;8.646;2023-04-28T10:51:33;15.60;99.90
20845;DHT22;10583;49.084;8.646;2023-04-28T10:54:13;15.50;99.90
20845;DHT22;10583;49.084;8.646;2023-04-28T10:57:14;15.50;99.90
20845;DHT22;10583;49.084;8.646;2023-04-28T10:59:41;15.50;99.90
20845;DHT22;10583;49.084;8.646;2023-04-28T11:05:15;15.70;99.90
20845;DHT22;10583;49.084;8.646;2023-04-28T11:11:14;15.90;99.90
20845;DHT22;10583;49.084;8.646;2023-04-28T11:13:42;16.00;99.90
20845;DHT22;10583;49.084;8.646;2023-04-28T11:16:13;16.10;99.90
20845;DHT22;10583;49.084;8.646;2023-04-28T11:18:53;16.00;99.90
20845;DHT22;10583;49.084;8.646;2023-04-28T11:21:22;15.90;99.90
20845;DHT22;10583;49.084;8.646;2023-04-28T11:23:49;15.70;99.90
20845;DHT22;10583;49.084;8.646;2023-04-28T11:26:18;15.70;99.90
20845;DHT22;10583;49.084;8.646;2023-04-28T11:28:50;15.60;99.90
20845;DHT22;10583;49.084;8.646;2023-04-28T11:31:18;15.60;99.90
20845;DHT22;10583;49.084;8.646;2023-04-28T11:33:49;15.60;99.90
20845;DHT22;10583;49.084;8.646;2023-04-28T11:36:27;15.60;99.90
20845;DHT22;10583;49.084;8.646;2023-04-28T11:38:56;15.70;99.90
20845;DHT22;10583;49.084;8.646;2023-04-28T11:41:23;15.70;99.90
20845;DHT22;10583;49.084;8.646;2023-04-28T11:43:52;15.70;99.90
20845;DHT22;10583;49.084;8.646;2023-04-28T11:46:20;15.70;99.90
20845;DHT22;10583;49.084;8.646;2023-04-28T11:48:47;15.50;99.90
20845;DHT22;10583;49.084;8.646;2023-04-28T11:51:32;15.50;99.90
20845;DHT22;10583;49.084;8.646;2023-04-28T11:54:00;15.50;99.90
20845;DHT22;10583;49.084;8.646;2023-04-28T11:56:27;15.60;99.90
20845;DHT22;10583;49.084;8.646;2023-04-28T11:59:03;15.60;99.90
20845;DHT22;10583;49.084;8.646;2023-04-28T12:01:31;15.80;99.90
20845;DHT22;10583;49.084;8.646;2023-04-28T12:03:58;15.90;99.90
20845;DHT22;10583;49.084;8.646;2023-04-28T12:06:25;16.10;99.90
20845;DHT22;10583;49.084;8.646;2023-04-28T12:08:52;16.10;99.90
20845;DHT22;10583;49.084;8.646;2023-04-28T12:11:19;16.20;99.90
20845;DHT22;10583;49.084;8.646;2023-04-28T12:14:03;16.30;99.90
20845;DHT22;10583;49.084;8.646;2023-04-28T12:16:40;16.50;99.90
20845;DHT22;10583;49.084;8.646;2023-04-28T12:19:10;16.90;99.90
20845;DHT22;10583;49.084;8.646;2023-04-28T12:21:37;17.20;99.90
20845;DHT22;10583;49.084;8.646;2023-04-28T12:24:18;17.40;99.90
20845;DHT22;10583;49.084;8.646;2023-04-28T12:26:46;17.50;99.90
20845;DHT22;10583;49.084;8.646;2023-04-28T12:29:37;17.50;99.90
20845;DHT22;10583;49.084;8.646;2023-04-28T12:32:05;17.40;99.90
20845;DHT22;10583;49.084;8.646;2023-04-28T12:34:32;17.30;99.90
20845;DHT22;10583;49.084;8.646;2023-04-28T12:36:59;17.00;99.90
20845;DHT22;10583;49.084;8.646;2023-04-28T12:39:26;16.90;99.90
20845;DHT22;10583;49.084;8.646;2023-04-28T12:41:53;16.80;99.90
20845;DHT22;10583;49.084;8.646;2023-04-28T12:44:20;16.90;99.90
20845;DHT22;10583;49.084;8.646;2023-04-28T12:46:48;16.90;99.90
20845;DHT22;10583;49.084;8.646;2023-04-28T12:49:16;16.90;99.90
20845;DHT22;10583;49.084;8.646;2023-04-28T12:51:43;16.80;99.90
20845;DHT22;10583;49.084;8.646;2023-04-28T12:54:09;16.80;99.90
20845;DHT22;10583;49.084;8.646;2023-04-28T12:56:36;16.80;99.90
20845;DHT22;10583;49.084;8.646;2023-04-28T12:59:03;16.80;99.90
20845;DHT22;10583;49.084;8.646;2023-04-28T13:01:30;16.80;99.90
20845;DHT22;10583;49.084;8.646;2023-04-28T13:03:58;17.00;99.90
20845;DHT22;10583;49.084;8.646;2023-04-28T13:06:26;17.00;99.90
20845;DHT22;10583;49.084;8.646;2023-04-28T13:08:53;17.20;99.90
20845;DHT22;10583;49.084;8.646;2023-04-28T13:11:20;17.30;99.90
20845;DHT22;10583;49.084;8.646;2023-04-28T13:13:49;17.30;99.90
20845;DHT22;10583;49.084;8.646;2023-04-28T13:16:17;17.20;99.90
20845;DHT22;10583;49.084;8.646;2023-04-28T13:18:43;17.20;99.90
20845;DHT22;10583;49.084;8.646;2023-04-28T13:21:11;17.10;99.90
20845;DHT22;10583;49.084;8.646;2023-04-28T13:23:38;17.10;99.90
20845;DHT22;10583;49.084;8.646;2023-04-28T13:26:05;17.10;99.90
20845;DHT22;10583;49.084;8.646;2023-04-28T13:28:32;17.10;99.90
20845;DHT22;10583;49.084;8.646;2023-04-28T13:30:59;17.40;99.90
20845;DHT22;10583;49.084;8.646;2023-04-28T13:33:25;17.60;99.90
20845;DHT22;10583;49.084;8.646;2023-04-28T13:35:56;17.60;99.90
20845;DHT22;10583;49.084;8.646;2023-04-28T13:38:25;17.40;99.90
20845;DHT22;10583;49.084;8.646;2023-04-28T13:40:52;17.20;99.90
20845;DHT22;10583;49.084;8.646;2023-04-28T13:43:19;17.10;99.90
20845;DHT22;10583;49.084;8.646;2023-04-28T13:45:46;17.00;99.90
20845;DHT22;10583;49.084;8.646;2023-04-28T13:48:13;16.90;99.90
20845;DHT22;10583;49.084;8.646;2023-04-28T13:50:40;16.90;99.90
20845;DHT22;10583;49.084;8.646;2023-04-28T13:53:07;16.80;99.90
20845;DHT22;10583;49.084;8.646;2023-04-28T13:55:35;16.80;99.90
20845;DHT22;10583;49.084;8.646;2023-04-28T13:58:02;16.80;99.90
20845;DHT22;10583;49.084;8.646;2023-04-28T14:00:31;16.80;99.90
20845;DHT22;10583;49.084;8.646;2023-04-28T14:02:58;16.70;99.90
20845;DHT22;10583;49.084;8.646;2023-04-28T14:05:25;16.70;99.90
20845;DHT22;10583;49.084;8.646;2023-04-28T14:07:52;17.00;99.90
20845;DHT22;10583;49.084;8.646;2023-04-28T14:10:20;17.40;99.90
20845;DHT22;10583;49.084;8.646;2023-04-28T14:12:48;17.60;99.90
20845;DHT22;10583;49.084;8.646;2023-04-28T14:15:15;17.80;99.90
20845;DHT22;10583;49.084;8.646;2023-04-28T14:17:42;17.70;99.90
20845;DHT22;10583;49.084;8.646;2023-04-28T14:20:11;17.50;99.90
20845;DHT22;10583;49.084;8.646;2023-04-28T14:22:37;17.40;99.90
20845;DHT22;10583;49.084;8.646;2023-04-28T14:25:06;17.40;99.90
20845;DHT22;10583;49.084;8.646;2023-04-28T14:27:33;17.50;99.90
20845;DHT22;10583;49.084;8.646;2023-04-28T14:30:02;17.60;99.90
20845;DHT22;10583;49.084;8.646;2023-04-28T14:32:29;17.80;99.90
20845;DHT22;10583;49.084;8.646;2023-04-28T14:34:56;17.90;99.90
20845;DHT22;10583;49.084;8.646;2023-04-28T14:37:23;17.70;99.90
20845;DHT22;10583;49.084;8.646;2023-04-28T14:39:50;17.80;99.90
20845;DHT22;10583;49.084;8.646;2023-04-28T14:42:16;18.00;99.90
20845;DHT22;10583;49.084;8.646;2023-04-28T14:44:44;18.10;99.90
20845;DHT22;10583;49.084;8.646;2023-04-28T14:47:13;18.20;99.90
20845;DHT22;10583;49.084;8.646;2023-04-28T14:49:40;18.10;99.90
20845;DHT22;10583;49.084;8.646;2023-04-28T14:52:06;18.00;99.90
20845;DHT22;10583;49.084;8.646;2023-04-28T14:54:33;18.00;99.90
20845;DHT22;10583;49.084;8.646;2023-04-28T14:57:00;18.00;99.90
20845;DHT22;10583;49.084;8.646;2023-04-28T14:59:27;18.00;99.90
20845;DHT22;10583;49.084;8.646;2023-04-28T15:01:54;18.00;99.90
20845;DHT22;10583;49.084;8.646;2023-04-28T15:04:22;18.00;99.90
20845;DHT22;10583;49.084;8.646;2023-04-28T15:06:53;18.00;99.90
20845;DHT22;10583;49.084;8.646;2023-04-28T15:09:20;17.90;99.90
20845;DHT22;10583;49.084;8.646;2023-04-28T15:11:47;17.90;99.90
20845;DHT22;10583;49.084;8.646;2023-04-28T15:14:14;17.70;99.90
20845;DHT22;10583;49.084;8.646;2023-04-28T15:16:40;17.50;99.90
20845;DHT22;10583;49.084;8.646;2023-04-28T15:19:08;17.40;99.90
20845;DHT22;10583;49.084;8.646;2023-04-28T15:21:36;17.30;99.90
20845;DHT22;10583;49.084;8.646;2023-04-28T15:24:03;17.30;99.90
20845;DHT22;10583;49.084;8.646;2023-04-28T15:26:30;17.30;99.90
20845;DHT22;10583;49.084;8.646;2023-04-28T15:28:57;17.40;99.90
20845;DHT22;10583;49.084;8.646;2023-04-28T15:31:23;17.40;99.90
20845;DHT22;10583;49.084;8.646;2023-04-28T15:33:50;17.50;99.90
20845;DHT22;10583;49.084;8.646;2023-04-28T15:36:17;17.60;99.90
20845;DHT22;10583;49.084;8.646;2023-04-28T15:38:47;17.70;99.90
20845;DHT22;10583;49.084;8.646;2023-04-28T15:41:14;17.70;99.90